Tresor — F33875W — position and weather

sailwx.info

Track history (hours):
 
Tides and Currents Weather Stations Pressure Air Temp Water Temp Dewpoint Dewpoint Depression Visibility Wind Speed Wind Dir Waves Ship Positions

Tresor

Last reported at 2017-Oct-31 13:06 UTC. Time now 2017-Nov-18 04:52 UTC.
Position N 46°02' W 001°22'.
Warning: this ship's position is 17 days out of date.

Length 14 m.

Type: Sailing vessel. MMSI: 227397630.

Date/timePositionNaut miles runAvg speedWind from/ knotsBaromVisibWave heightAir tempDewpointWater temp
2017-Oct-31 13:06N 46°02' W 001°22'1 5.5
2017-Oct-31 13:00N 46°02' W 001°21'2 3.6
2017-Oct-31 12:31N 46°04' W 001°20'4 7.5
2017-Oct-31 12:00N 46°07' W 001°17'4 7.2
2017-Oct-31 11:30N 46°10' W 001°15'4 7.3
2017-Oct-31 11:00N 46°13' W 001°18'2 3.9
2017-Oct-31 10:30N 46°14' W 001°21'2 0.1
2017-Oct-30 11:06N 46°12' W 001°22'0 1.2
2017-Oct-30 10:52N 46°13' W 001°22'2 6.4
2017-Oct-30 10:30N 46°12' W 001°19'4 7.6
2017-Oct-30 10:00N 46°10' W 001°15'3 5.8
2017-Oct-30 09:30N 46°09' W 001°11'1 0.6
2017-Oct-30 08:32N 46°09' W 001°10'0 0.0
2017-Oct-29 14:37N 46°09' W 001°10'0 0.0
2017-Oct-29 14:30N 46°09' W 001°10'1 2.2
2017-Oct-29 14:00N 46°08' W 001°11'3 6.7
2017-Oct-29 13:30N 46°06' W 001°15'3 5.5
2017-Oct-29 13:00N 46°05' W 001°18'4 1.9
2017-Oct-29 11:03N 46°02' W 001°22'0 1.5
2017-Oct-29 10:58N 46°02' W 001°22'2 4.1
2017-Oct-29 10:30N 46°03' W 001°20'3 5.3
2017-Oct-29 10:00N 46°05' W 001°17'3 5.2
2017-Oct-29 09:30N 46°07' W 001°15'2 4.5
2017-Oct-29 09:01N 46°09' W 001°15'0 0.0
2017-Oct-28 18:16N 46°09' W 001°15'1 3.9
2017-Oct-28 18:00N 46°09' W 001°14'2 3.5
2017-Oct-28 17:30N 46°08' W 001°12'2 2.7
2017-Oct-28 16:56N 46°09' W 001°10'  
Track history (hours):
 
Tides and Currents Weather Stations Pressure Air Temp Water Temp Dewpoint Dewpoint Depression Visibility Wind Speed Wind Dir Waves Ship Positions

Tresor

Last reported at 2017-Oct-31 13:06 UTC. Time now 2017-Nov-18 04:52 UTC.
Position N 46°02' W 001°22'.
Warning: this ship's position is 17 days out of date.

Length 14 m.

Type: Sailing vessel. MMSI: 227397630.

Date/timePositionNaut miles runAvg speedWind from/ knotsBaromVisibWave heightAir tempDewpointWater temp
2017-Oct-31 13:06N 46°02' W 001°22'1 5.5
2017-Oct-31 13:00N 46°02' W 001°21'2 3.6
2017-Oct-31 12:31N 46°04' W 001°20'4 7.5
2017-Oct-31 12:00N 46°07' W 001°17'4 7.2
2017-Oct-31 11:30N 46°10' W 001°15'4 7.3
2017-Oct-31 11:00N 46°13' W 001°18'2 3.9
2017-Oct-31 10:30N 46°14' W 001°21'2 0.1
2017-Oct-30 11:06N 46°12' W 001°22'0 1.2
2017-Oct-30 10:52N 46°13' W 001°22'2 6.4
2017-Oct-30 10:30N 46°12' W 001°19'4 7.6
2017-Oct-30 10:00N 46°10' W 001°15'3 5.8
2017-Oct-30 09:30N 46°09' W 001°11'1 0.6
2017-Oct-30 08:32N 46°09' W 001°10'0 0.0
2017-Oct-29 14:37N 46°09' W 001°10'0 0.0
2017-Oct-29 14:30N 46°09' W 001°10'1 2.2
2017-Oct-29 14:00N 46°08' W 001°11'3 6.7
2017-Oct-29 13:30N 46°06' W 001°15'3 5.5
2017-Oct-29 13:00N 46°05' W 001°18'4 1.9
2017-Oct-29 11:03N 46°02' W 001°22'0 1.5
2017-Oct-29 10:58N 46°02' W 001°22'2 4.1
2017-Oct-29 10:30N 46°03' W 001°20'3 5.3
2017-Oct-29 10:00N 46°05' W 001°17'3 5.2
2017-Oct-29 09:30N 46°07' W 001°15'2 4.5
2017-Oct-29 09:01N 46°09' W 001°15'0 0.0
2017-Oct-28 18:16N 46°09' W 001°15'1 3.9
2017-Oct-28 18:00N 46°09' W 001°14'2 3.5
2017-Oct-28 17:30N 46°08' W 001°12'2 2.7
2017-Oct-28 16:56N 46°09' W 001°10'  

Dump ship's entire track history